Time;durP1;ratioP1;P1;durP2;ratioP2;P2;SDS_P1;SDS_P2;PMS_P1;PMS_P2;Temp;Humidity;BMP_temperature;BMP_pressure;BME280_temperature;BME280_humidity;BME280_pressure;Samples;Min_cycle;Max_cycle;Signal;HPM_P1;HPM_P2
2022/07/31 00:00:43;;;;;;;11.48;7.68;;;19.70;99.90;;;;;;5042975;28;20032;-77
2022/07/31 00:03:10;;;;;;;12.75;7.43;;;19.70;99.90;;;;;;5030664;28;20036;-76
2022/07/31 00:05:36;;;;;;;17.92;9.15;;;19.70;99.90;;;;;;5031601;28;20044;-77
2022/07/31 00:08:02;;;;;;;13.05;7.63;;;19.60;99.90;;;;;;5028042;28;20025;-76
2022/07/31 00:10:28;;;;;;;13.90;7.80;;;19.60;99.90;;;;;;5047654;28;20029;-77
2022/07/31 00:12:54;;;;;;;15.32;8.30;;;19.70;99.90;;;;;;5032785;28;20025;-77
2022/07/31 00:15:20;;;;;;;11.27;7.03;;;19.60;99.90;;;;;;5013689;28;20135;-77
2022/07/31 00:17:47;;;;;;;12.23;7.13;;;19.60;99.90;;;;;;5046363;28;20025;-76
2022/07/31 00:20:15;;;;;;;18.38;7.97;;;19.60;99.90;;;;;;5030135;28;20025;-76
2022/07/31 00:22:42;;;;;;;16.60;7.57;;;19.60;99.90;;;;;;5049082;28;20043;-76
2022/07/31 00:25:10;;;;;;;11.43;6.97;;;19.50;99.90;;;;;;5047612;28;20041;-77
2022/07/31 00:27:35;;;;;;;13.30;7.00;;;19.60;99.90;;;;;;5014639;28;20382;-77
2022/07/31 00:30:01;;;;;;;11.77;7.70;;;19.50;99.90;;;;;;5048084;28;20052;-76
2022/07/31 00:32:27;;;;;;;21.60;9.30;;;19.50;99.90;;;;;;5031594;28;20025;-77
2022/07/31 00:34:52;;;;;;;13.02;9.07;;;19.50;99.90;;;;;;5027591;28;20445;-77
2022/07/31 00:37:18;;;;;;;13.07;9.35;;;19.50;99.90;;;;;;5048815;28;20444;-76
2022/07/31 00:39:44;;;;;;;15.90;9.48;;;19.50;99.90;;;;;;5031059;28;20021;-77
2022/07/31 00:42:21;;;;;;;11.05;7.93;;;19.40;99.90;;;;;;5048405;28;20420;-77
2022/07/31 00:44:47;;;;;;;18.10;9.18;;;19.40;99.90;;;;;;5029312;28;20017;-76
2022/07/31 00:47:14;;;;;;;13.30;9.05;;;19.40;99.90;;;;;;5030965;28;20033;-77
2022/07/31 00:49:39;;;;;;;14.88;7.82;;;19.40;99.90;;;;;;5028869;28;20029;-76
2022/07/31 00:52:06;;;;;;;12.80;8.20;;;19.40;99.90;;;;;;5015609;28;20393;-77
2022/07/31 00:54:33;;;;;;;14.77;8.55;;;19.40;99.90;;;;;;5028602;28;20074;-76
2022/07/31 00:56:58;;;;;;;12.93;7.60;;;19.40;99.90;;;;;;5028807;28;20276;-76
2022/07/31 00:59:25;;;;;;;9.85;7.35;;;19.40;99.90;;;;;;5028818;28;20108;-77
2022/07/31 01:01:51;;;;;;;9.25;6.88;;;19.40;99.90;;;;;;5014113;28;20385;-76
2022/07/31 01:04:17;;;;;;;10.85;7.43;;;19.40;99.90;;;;;;5044450;28;20036;-83
2022/07/31 01:06:44;;;;;;;10.43;6.95;;;19.40;99.90;;;;;;5047776;28;20052;-76
2022/07/31 01:09:10;;;;;;;13.95;7.70;;;19.40;99.90;;;;;;5044159;28;20032;-77
2022/07/31 01:11:54;;;;;;;14.60;8.10;;;19.30;99.90;;;;;;5010107;28;20033;-77
2022/07/31 01:14:23;;;;;;;10.35;7.53;;;19.30;99.90;;;;;;5028427;28;20022;-77
2022/07/31 01:16:52;;;;;;;12.45;8.23;;;19.30;99.90;;;;;;5047157;28;20024;-77
2022/07/31 01:19:31;;;;;;;12.30;7.63;;;19.30;99.90;;;;;;5041746;28;20044;-77
2022/07/31 01:22:28;;;;;;;16.75;8.57;;;19.30;99.90;;;;;;5026248;28;20024;-77
2022/07/31 01:24:57;;;;;;;17.88;9.50;;;19.20;99.90;;;;;;5047885;28;20025;-77
2022/07/31 01:27:44;;;;;;;13.35;8.63;;;19.30;99.90;;;;;;5053934;28;20512;-78
2022/07/31 01:30:10;;;;;;;17.52;9.75;;;19.20;99.90;;;;;;5051219;28;20051;-77
2022/07/31 01:32:45;;;;;;;17.73;9.13;;;19.20;99.90;;;;;;5052675;28;20037;-77
2022/07/31 01:35:19;;;;;;;9.90;8.20;;;19.20;99.90;;;;;;5053463;28;20079;-78
2022/07/31 01:37:51;;;;;;;12.88;9.02;;;19.20;99.90;;;;;;5054802;28;20024;-78
2022/07/31 01:40:31;;;;;;;16.52;10.23;;;19.20;99.90;;;;;;5060498;28;20032;-78
2022/07/31 01:43:04;;;;;;;14.45;9.32;;;19.20;99.90;;;;;;5056820;28;20393;-78
2022/07/31 01:45:32;;;;;;;14.18;9.70;;;19.10;99.90;;;;;;5034274;28;20040;-77
2022/07/31 01:48:00;;;;;;;15.02;9.90;;;19.20;99.90;;;;;;5065258;28;20488;-76
2022/07/31 01:50:27;;;;;;;12.82;9.27;;;19.10;99.90;;;;;;5063552;28;20040;-76
2022/07/31 01:52:54;;;;;;;13.18;8.60;;;19.10;99.90;;;;;;5036307;28;20060;-77
2022/07/31 01:55:20;;;;;;;16.10;8.88;;;19.10;99.90;;;;;;5049098;28;20029;-77
2022/07/31 01:57:47;;;;;;;11.75;8.45;;;19.10;99.90;;;;;;5047921;28;20021;-77
2022/07/31 02:00:13;;;;;;;13.00;8.27;;;19.10;99.90;;;;;;5047650;28;20033;-77
2022/07/31 02:02:41;;;;;;;13.77;9.35;;;19.10;99.90;;;;;;5050554;28;20033;-77
2022/07/31 02:05:10;;;;;;;15.00;8.18;;;19.00;99.90;;;;;;5031748;28;20029;-76
2022/07/31 02:07:39;;;;;;;15.02;9.55;;;19.00;99.90;;;;;;5050144;28;20063;-78
2022/07/31 02:10:08;;;;;;;17.13;10.63;;;19.00;99.90;;;;;;5050249;28;20056;-77
2022/07/31 02:12:36;;;;;;;14.98;9.38;;;19.00;99.90;;;;;;5032799;28;20021;-76
2022/07/31 02:15:07;;;;;;;12.38;9.63;;;18.90;99.90;;;;;;5030412;28;20493;-76
2022/07/31 02:17:34;;;;;;;14.45;10.13;;;18.90;99.90;;;;;;5032910;28;20124;-77
2022/07/31 02:20:02;;;;;;;14.20;10.32;;;18.90;99.90;;;;;;5052190;28;20063;-77
2022/07/31 02:22:28;;;;;;;14.43;9.70;;;18.90;99.90;;;;;;5016164;28;20033;-76
2022/07/31 02:24:54;;;;;;;16.50;10.93;;;18.80;99.90;;;;;;5032764;28;20028;-77
2022/07/31 02:27:22;;;;;;;14.02;10.35;;;18.80;99.90;;;;;;5028466;28;20488;-77
2022/07/31 02:29:48;;;;;;;14.95;10.10;;;18.80;99.90;;;;;;5031600;28;20025;-77
2022/07/31 02:32:16;;;;;;;12.95;9.88;;;18.70;99.90;;;;;;5034397;28;20025;-75
2022/07/31 02:34:43;;;;;;;14.25;10.55;;;18.70;99.90;;;;;;5032030;28;20115;-77
2022/07/31 02:37:11;;;;;;;17.95;11.38;;;18.70;99.90;;;;;;5051842;28;20045;-76
2022/07/31 02:39:37;;;;;;;16.42;11.10;;;18.70;99.90;;;;;;5047765;28;20029;-76
2022/07/31 02:42:04;;;;;;;18.35;11.57;;;18.70;99.90;;;;;;5034895;28;20087;-77
2022/07/31 02:44:33;;;;;;;15.73;12.25;;;18.60;99.90;;;;;;5030567;28;20453;-77
2022/07/31 02:47:01;;;;;;;13.57;11.25;;;18.50;99.90;;;;;;5047136;28;21793;-76
2022/07/31 02:49:29;;;;;;;14.25;10.60;;;18.50;99.90;;;;;;5049970;28;20032;-77
2022/07/31 02:51:56;;;;;;;16.33;11.18;;;18.50;99.90;;;;;;5032279;28;20108;-76
2022/07/31 02:54:23;;;;;;;15.65;11.60;;;18.50;99.90;;;;;;5050234;28;20617;-77
2022/07/31 02:56:51;;;;;;;16.63;11.68;;;18.50;99.90;;;;;;5027562;28;20049;-76
2022/07/31 02:59:17;;;;;;;18.40;11.35;;;18.50;99.90;;;;;;5029208;28;20532;-77
2022/07/31 03:01:43;;;;;;;15.38;11.18;;;18.50;99.90;;;;;;5046389;28;20044;-76
2022/07/31 03:04:09;;;;;;;16.50;11.82;;;18.40;99.90;;;;;;5048812;28;20033;-77
2022/07/31 03:06:35;;;;;;;16.92;10.63;;;18.40;99.90;;;;;;5049292;28;20063;-77
2022/07/31 03:09:01;;;;;;;25.17;11.40;;;18.40;99.90;;;;;;5029462;28;20480;-77
2022/07/31 03:11:27;;;;;;;16.52;11.65;;;18.40;99.90;;;;;;5032012;28;20028;-76
2022/07/31 03:13:57;;;;;;;13.15;10.00;;;18.40;99.90;;;;;;5030792;28;20104;-77
2022/07/31 03:16:24;;;;;;;15.25;11.38;;;18.40;99.90;;;;;;5047745;28;20100;-76
2022/07/31 03:18:51;;;;;;;15.27;11.80;;;18.30;99.90;;;;;;5029110;28;20039;-77
2022/07/31 03:21:18;;;;;;;18.08;10.68;;;18.30;99.90;;;;;;5021043;28;20083;-77
2022/07/31 03:23:45;;;;;;;16.63;11.10;;;18.30;99.90;;;;;;5048449;28;20723;-77
2022/07/31 03:26:12;;;;;;;14.68;11.27;;;18.30;99.90;;;;;;5051297;28;20052;-77
2022/07/31 03:28:37;;;;;;;13.93;10.68;;;18.30;99.90;;;;;;5045914;28;20029;-78
2022/07/31 03:31:03;;;;;;;14.30;10.82;;;18.30;99.90;;;;;;5048905;28;20043;-76
2022/07/31 03:33:29;;;;;;;14.68;10.90;;;18.20;99.90;;;;;;5030480;28;20047;-77
2022/07/31 03:35:55;;;;;;;15.55;10.55;;;18.20;99.90;;;;;;5028057;28;20025;-77
2022/07/31 03:38:20;;;;;;;14.35;11.50;;;18.20;99.90;;;;;;5028691;28;20033;-77
2022/07/31 03:40:46;;;;;;;14.95;10.75;;;18.20;99.90;;;;;;5030903;28;20024;-77
2022/07/31 03:43:14;;;;;;;16.52;10.48;;;18.30;99.90;;;;;;5032633;28;20029;-78
2022/07/31 03:45:41;;;;;;;14.15;10.30;;;18.30;99.90;;;;;;5030394;28;20063;-78
2022/07/31 03:48:08;;;;;;;13.35;11.32;;;18.30;99.90;;;;;;5048595;28;20378;-77
2022/07/31 03:50:38;;;;;;;13.55;11.23;;;18.20;99.90;;;;;;5047961;28;20043;-78
2022/07/31 03:53:07;;;;;;;15.80;12.38;;;18.20;99.90;;;;;;5029977;28;20029;-78
2022/07/31 03:55:35;;;;;;;12.68;10.70;;;18.20;99.90;;;;;;5047955;28;20132;-78
2022/07/31 03:58:02;;;;;;;18.70;11.82;;;18.20;99.90;;;;;;5028676;28;20028;-77
2022/07/31 04:00:28;;;;;;;14.82;12.25;;;18.20;99.90;;;;;;5030944;28;20071;-78
2022/07/31 04:02:57;;;;;;;17.42;12.18;;;18.10;99.90;;;;;;5036041;28;20059;-78
2022/07/31 04:05:23;;;;;;;16.15;12.13;;;18.20;99.90;;;;;;5030097;28;20029;-78
2022/07/31 04:07:49;;;;;;;16.73;12.52;;;18.10;99.90;;;;;;5046474;28;20029;-77
2022/07/31 04:10:15;;;;;;;17.52;12.45;;;18.20;99.90;;;;;;5045528;28;20112;-77
2022/07/31 04:12:40;;;;;;;16.73;12.45;;;18.20;99.90;;;;;;5048354;28;20226;-78
2022/07/31 04:15:07;;;;;;;23.90;12.63;;;18.10;99.90;;;;;;5047245;28;20090;-77
2022/07/31 04:17:33;;;;;;;19.60;12.32;;;18.10;99.90;;;;;;5028752;28;20021;-78
2022/07/31 04:19:58;;;;;;;20.10;12.70;;;18.10;99.90;;;;;;5030834;28;20051;-76
2022/07/31 04:22:24;;;;;;;16.05;11.48;;;18.10;99.90;;;;;;5034133;28;20111;-77
2022/07/31 04:24:50;;;;;;;17.00;12.20;;;18.00;99.90;;;;;;5051025;28;20017;-77
2022/07/31 04:27:16;;;;;;;18.67;13.13;;;18.10;99.90;;;;;;5046885;28;20067;-76
2022/07/31 04:29:44;;;;;;;19.00;13.18;;;18.10;99.90;;;;;;5031589;28;20044;-76
2022/07/31 04:32:10;;;;;;;14.88;11.70;;;18.00;99.90;;;;;;5051501;28;20028;-77
2022/07/31 04:34:36;;;;;;;16.20;11.75;;;18.10;99.90;;;;;;5031675;28;20032;-77
2022/07/31 04:37:02;;;;;;;14.40;12.63;;;18.10;99.90;;;;;;5047709;28;20028;-77
2022/07/31 04:39:28;;;;;;;16.10;11.68;;;18.10;99.90;;;;;;5045153;28;20017;-77
2022/07/31 04:41:54;;;;;;;16.52;12.32;;;18.10;99.90;;;;;;5048262;28;20066;-76
2022/07/31 04:44:21;;;;;;;17.90;11.90;;;18.10;99.90;;;;;;5046971;28;20025;-77
2022/07/31 04:46:47;;;;;;;17.13;12.25;;;18.10;99.90;;;;;;5030595;28;20024;-77
2022/07/31 04:49:13;;;;;;;15.43;11.98;;;18.10;99.90;;;;;;5046684;28;20504;-77
2022/07/31 04:51:41;;;;;;;17.27;12.98;;;18.20;99.90;;;;;;5045166;28;20443;-77
2022/07/31 04:54:07;;;;;;;20.05;12.90;;;18.20;99.90;;;;;;5029790;28;20480;-76
2022/07/31 04:56:40;;;;;;;16.85;12.45;;;18.20;99.90;;;;;;5032244;28;20099;-76
2022/07/31 04:59:14;;;;;;;19.23;12.52;;;18.20;99.90;;;;;;5048858;28;20025;-76
2022/07/31 05:01:41;;;;;;;17.65;13.23;;;18.30;99.90;;;;;;5048766;28;20492;-76
2022/07/31 05:04:08;;;;;;;17.13;11.63;;;18.30;99.90;;;;;;5016184;28;20127;-76
2022/07/31 05:06:39;;;;;;;18.88;13.05;;;18.30;99.90;;;;;;5034858;28;20040;-76
2022/07/31 05:09:07;;;;;;;17.60;11.50;;;18.30;99.90;;;;;;5048557;28;20033;-78
2022/07/31 05:11:34;;;;;;;16.88;11.65;;;18.40;99.90;;;;;;5030561;28;20033;-76
2022/07/31 05:14:01;;;;;;;17.08;11.85;;;18.40;99.90;;;;;;5051968;28;20028;-76
2022/07/31 05:16:28;;;;;;;17.60;12.02;;;18.40;99.90;;;;;;5049341;28;20431;-77
2022/07/31 05:18:54;;;;;;;15.75;10.93;;;18.30;99.90;;;;;;5014897;28;20393;-77
2022/07/31 05:21:21;;;;;;;18.27;12.05;;;18.30;99.90;;;;;;5048646;28;20032;-77
2022/07/31 05:23:48;;;;;;;15.60;12.23;;;18.30;99.90;;;;;;5016870;28;20032;-77
2022/07/31 05:26:15;;;;;;;15.73;12.05;;;18.30;99.90;;;;;;5032542;28;20507;-77
2022/07/31 05:28:41;;;;;;;16.45;12.32;;;18.30;99.90;;;;;;5033005;28;20374;-77
2022/07/31 05:31:08;;;;;;;17.77;12.13;;;18.30;99.90;;;;;;5030523;28;20029;-77
2022/07/31 05:33:34;;;;;;;16.77;12.27;;;18.30;99.90;;;;;;5028929;28;21148;-77
2022/07/31 05:36:01;;;;;;;19.10;12.55;;;18.30;99.90;;;;;;5033108;28;20049;-77
2022/07/31 05:38:28;;;;;;;15.30;11.93;;;18.40;99.90;;;;;;5015148;28;20053;-77
2022/07/31 05:40:54;;;;;;;19.15;13.55;;;18.50;99.90;;;;;;5050677;28;20519;-77
2022/07/31 05:43:19;;;;;;;19.45;12.98;;;18.50;99.90;;;;;;5047775;28;20028;-77
2022/07/31 05:45:45;;;;;;;20.42;12.77;;;18.60;99.90;;;;;;5052036;28;20452;-77
2022/07/31 05:48:12;;;;;;;16.58;12.07;;;18.80;99.90;;;;;;5032210;28;20037;-77
2022/07/31 05:50:42;;;;;;;15.85;9.75;;;18.90;99.90;;;;;;5049370;28;20114;-77
2022/07/31 05:53:10;;;;;;;15.52;10.27;;;19.00;99.90;;;;;;5050876;28;20026;-77
2022/07/31 05:55:36;;;;;;;13.20;11.23;;;19.10;99.90;;;;;;5050416;28;20442;-77
2022/07/31 05:58:02;;;;;;;16.88;11.20;;;19.10;99.90;;;;;;5030871;28;20025;-76
2022/07/31 06:00:29;;;;;;;15.93;10.68;;;19.20;99.90;;;;;;5048369;28;20029;-77
2022/07/31 06:02:55;;;;;;;14.25;11.00;;;19.20;99.90;;;;;;5047753;28;20151;-77
2022/07/31 06:05:21;;;;;;;19.33;12.10;;;19.20;99.90;;;;;;5050426;28;20025;-77
2022/07/31 06:07:49;;;;;;;14.88;10.55;;;19.30;99.90;;;;;;5032779;28;20060;-76
2022/07/31 06:10:15;;;;;;;14.75;10.40;;;19.30;99.90;;;;;;5046267;28;20028;-77
2022/07/31 06:12:41;;;;;;;17.67;12.18;;;19.30;99.90;;;;;;5051001;28;20025;-77
2022/07/31 06:15:07;;;;;;;15.45;12.13;;;19.40;99.90;;;;;;5039464;28;20052;-76
2022/07/31 06:17:32;;;;;;;15.35;11.30;;;19.50;99.90;;;;;;5061234;28;20047;-77
2022/07/31 06:19:58;;;;;;;9.80;8.60;;;19.50;99.90;;;;;;5044552;28;20057;-77
2022/07/31 06:22:24;;;;;;;16.33;9.50;;;19.50;99.90;;;;;;5036291;28;20032;-77
2022/07/31 06:24:50;;;;;;;9.38;7.57;;;19.50;99.90;;;;;;5038459;28;20051;-77
2022/07/31 06:27:16;;;;;;;13.63;8.20;;;19.60;99.90;;;;;;5035247;28;20663;-76
2022/07/31 06:29:42;;;;;;;11.98;8.93;;;19.50;99.90;;;;;;5029206;28;20056;-77
2022/07/31 06:32:08;;;;;;;10.07;7.35;;;19.60;99.90;;;;;;5048142;28;20037;-76
2022/07/31 06:34:34;;;;;;;10.40;7.25;;;19.70;99.90;;;;;;5043081;28;20124;-77
2022/07/31 06:36:59;;;;;;;13.52;6.63;;;19.60;99.90;;;;;;5029507;28;20037;-76
2022/07/31 06:39:25;;;;;;;8.38;5.53;;;19.70;99.90;;;;;;5050010;28;20060;-76
2022/07/31 06:41:51;;;;;;;11.73;6.13;;;19.70;99.90;;;;;;5045475;28;20540;-77
2022/07/31 06:44:18;;;;;;;10.20;6.00;;;19.70;99.90;;;;;;5051760;28;20029;-76
2022/07/31 06:46:45;;;;;;;8.80;5.60;;;19.70;99.90;;;;;;5046068;28;20071;-76
2022/07/31 06:49:11;;;;;;;13.60;8.80;;;19.70;99.90;;;;;;5052249;28;20029;-76
2022/07/31 06:51:37;;;;;;;12.45;7.13;;;19.70;99.90;;;;;;5048899;28;20398;-76
2022/07/31 06:54:05;;;;;;;10.73;6.72;;;19.70;99.90;;;;;;5047588;28;20581;-76
2022/07/31 06:56:32;;;;;;;7.03;5.78;;;19.70;99.90;;;;;;5045612;28;20393;-76
2022/07/31 06:58:57;;;;;;;8.65;6.18;;;19.70;99.90;;;;;;5053613;28;20045;-78
2022/07/31 07:01:23;;;;;;;9.38;5.47;;;19.80;99.90;;;;;;5032191;28;20035;-75
2022/07/31 07:03:49;;;;;;;8.40;5.25;;;19.60;99.90;;;;;;5049464;28;20729;-74
2022/07/31 07:06:15;;;;;;;9.65;4.28;;;19.60;99.90;;;;;;5045284;28;20037;-74
2022/07/31 07:08:40;;;;;;;10.02;4.30;;;19.60;99.90;;;;;;5043836;28;20318;-73
2022/07/31 07:11:06;;;;;;;8.18;3.58;;;19.80;99.90;;;;;;5047625;28;20029;-74
2022/07/31 07:13:32;;;;;;;6.97;3.42;;;19.90;99.90;;;;;;5030010;28;20030;-73
2022/07/31 07:15:58;;;;;;;5.25;2.95;;;20.00;99.90;;;;;;5028854;28;20047;-73
2022/07/31 07:18:24;;;;;;;5.95;3.08;;;20.10;99.90;;;;;;5048593;28;20103;-74
2022/07/31 07:20:50;;;;;;;6.93;3.25;;;20.10;99.90;;;;;;5046874;28;20663;-77
2022/07/31 07:23:16;;;;;;;7.90;2.92;;;20.30;99.90;;;;;;5048298;28;20032;-77
2022/07/31 07:25:42;;;;;;;5.90;3.58;;;20.30;99.90;;;;;;5045540;28;20040;-78
2022/07/31 07:28:09;;;;;;;9.85;4.03;;;20.30;99.90;;;;;;5015764;28;20230;-78
2022/07/31 07:30:35;;;;;;;13.98;6.03;;;20.40;99.90;;;;;;5028321;28;20037;-77
2022/07/31 07:33:01;;;;;;;14.20;7.85;;;20.40;99.90;;;;;;5044262;28;20044;-80
2022/07/31 07:35:27;;;;;;;11.60;8.07;;;20.30;99.90;;;;;;5034206;28;20647;-78
2022/07/31 07:37:53;;;;;;;8.55;5.80;;;20.20;99.90;;;;;;5029423;28;20033;-77
2022/07/31 07:40:20;;;;;;;11.48;6.68;;;20.20;99.90;;;;;;5028939;28;20029;-77
2022/07/31 07:42:45;;;;;;;11.10;6.35;;;20.30;99.90;;;;;;5012679;28;20025;-76
2022/07/31 07:45:15;;;;;;;9.10;5.78;;;20.40;99.90;;;;;;5046428;28;20098;-76
2022/07/31 07:47:41;;;;;;;16.48;7.10;;;20.40;99.90;;;;;;5033351;28;20417;-76
2022/07/31 07:50:08;;;;;;;9.23;6.20;;;20.50;99.90;;;;;;5028618;28;20059;-76
2022/07/31 07:52:35;;;;;;;8.43;5.07;;;20.60;99.90;;;;;;5047430;28;20068;-76
2022/07/31 07:55:00;;;;;;;9.60;5.60;;;20.50;99.90;;;;;;5045957;28;20041;-77
2022/07/31 07:57:26;;;;;;;11.57;5.40;;;20.60;99.90;;;;;;5045118;28;20036;-77
2022/07/31 07:59:52;;;;;;;12.77;7.25;;;20.80;99.90;;;;;;5029271;28;20040;-77
2022/07/31 08:02:18;;;;;;;10.07;5.32;;;20.70;99.90;;;;;;5046725;28;20033;-77
2022/07/31 08:04:44;;;;;;;7.20;4.53;;;20.70;99.90;;;;;;5044419;28;20523;-77
2022/07/31 08:07:10;;;;;;;12.32;5.55;;;20.80;99.90;;;;;;5048958;28;20039;-77
2022/07/31 08:09:39;;;;;;;9.98;4.72;;;20.80;99.90;;;;;;5030638;28;20235;-74
2022/07/31 08:12:05;;;;;;;9.48;4.47;;;20.90;99.90;;;;;;5030149;28;20116;-76
2022/07/31 08:14:31;;;;;;;5.20;3.45;;;21.00;99.90;;;;;;5044842;28;20167;-75
2022/07/31 08:16:56;;;;;;;8.02;4.05;;;21.10;99.90;;;;;;5047139;28;20485;-76
2022/07/31 08:19:22;;;;;;;11.02;3.88;;;21.10;99.90;;;;;;5016654;28;20403;-77
2022/07/31 08:21:48;;;;;;;7.18;4.03;;;21.10;99.90;;;;;;5014343;28;20043;-76
2022/07/31 08:24:15;;;;;;;9.20;3.60;;;21.10;99.90;;;;;;5034356;28;20039;-77
2022/07/31 08:29:29;;;;;;;6.32;3.60;;;21.10;99.90;;;;;;5042060;28;20047;-75
2022/07/31 08:31:55;;;;;;;7.40;3.58;;;21.10;99.90;;;;;;5042296;28;20029;-76
2022/07/31 08:34:21;;;;;;;8.13;3.65;;;21.20;99.90;;;;;;5022814;28;20032;-75
2022/07/31 08:36:47;;;;;;;6.50;3.45;;;21.20;99.90;;;;;;5012651;28;20039;-75
2022/07/31 08:39:12;;;;;;;5.10;3.40;;;21.30;99.90;;;;;;5027815;28;20493;-73
2022/07/31 08:41:39;;;;;;;5.22;3.00;;;21.30;99.90;;;;;;5048121;28;20503;-75
2022/07/31 08:44:06;;;;;;;5.57;2.83;;;21.40;99.90;;;;;;5026430;28;20121;-77
2022/07/31 08:46:37;;;;;;;4.15;2.92;;;21.50;99.90;;;;;;5046379;28;20170;-75
2022/07/31 08:49:04;;;;;;;5.13;2.92;;;21.50;99.90;;;;;;5040966;28;20195;-73
2022/07/31 08:51:34;;;;;;;8.15;3.25;;;21.60;99.90;;;;;;5027778;28;20681;-76
2022/07/31 08:54:04;;;;;;;4.78;2.55;;;21.60;99.90;;;;;;5046837;28;20523;-74
2022/07/31 08:56:33;;;;;;;6.53;2.90;;;21.70;99.90;;;;;;5029485;28;20052;-76
2022/07/31 08:58:58;;;;;;;4.55;3.00;;;21.70;99.90;;;;;;5044495;28;21881;-75
2022/07/31 09:01:24;;;;;;;5.97;3.42;;;21.70;99.90;;;;;;5041577;28;20074;-76
2022/07/31 09:03:52;;;;;;;5.07;3.05;;;21.70;99.90;;;;;;5026310;28;20132;-75
2022/07/31 09:06:18;;;;;;;4.50;2.40;;;21.70;99.90;;;;;;5029476;28;20183;-76
2022/07/31 09:08:44;;;;;;;5.60;2.50;;;21.70;99.90;;;;;;5046057;28;20088;-75
2022/07/31 09:11:14;;;;;;;4.55;2.85;;;21.70;99.90;;;;;;5025798;28;20036;-75
2022/07/31 09:13:51;;;;;;;4.50;2.50;;;21.70;99.90;;;;;;5031957;28;20111;-75
2022/07/31 09:16:17;;;;;;;5.13;2.65;;;21.70;99.90;;;;;;5050679;28;20032;-74
2022/07/31 09:18:43;;;;;;;8.57;3.10;;;21.70;99.90;;;;;;5049491;28;20037;-75
2022/07/31 09:21:09;;;;;;;3.33;2.20;;;21.70;99.90;;;;;;5032956;28;20025;-76
2022/07/31 09:23:45;;;;;;;2.75;2.05;;;21.60;99.90;;;;;;5027293;28;20033;-76
2022/07/31 09:26:11;;;;;;;6.40;2.58;;;21.60;99.90;;;;;;5046841;28;20087;-76
2022/07/31 09:29:00;;;;;;;5.18;2.28;;;21.60;99.90;;;;;;5031241;28;20481;-75
2022/07/31 09:31:31;;;;;;;6.25;2.90;;;21.70;99.90;;;;;;5030389;28;20029;-75
2022/07/31 09:33:57;;;;;;;5.03;2.30;;;21.60;99.90;;;;;;5011277;28;20025;-74
2022/07/31 09:36:23;;;;;;;4.25;2.10;;;21.60;99.90;;;;;;5015412;28;20025;-75
2022/07/31 09:38:49;;;;;;;4.60;2.65;;;21.80;99.90;;;;;;5009918;28;20025;-75
2022/07/31 09:41:18;;;;;;;3.17;2.10;;;21.90;99.90;;;;;;5034735;28;20036;-75
2022/07/31 09:43:59;;;;;;;4.35;2.60;;;22.00;99.90;;;;;;5032673;28;20036;-77
2022/07/31 09:46:26;;;;;;;4.60;2.38;;;22.10;99.90;;;;;;5027107;28;20372;-75
2022/07/31 09:48:55;;;;;;;2.65;1.80;;;22.20;99.90;;;;;;5037975;28;20036;-75
2022/07/31 09:51:21;;;;;;;4.50;2.10;;;22.30;99.90;;;;;;5049717;28;20029;-75
2022/07/31 09:53:52;;;;;;;8.02;2.55;;;22.40;99.90;;;;;;5047002;28;20570;-75
2022/07/31 09:56:29;;;;;;;5.90;2.22;;;22.50;99.90;;;;;;5045562;28;20119;-75
2022/07/31 09:58:55;;;;;;;5.18;2.35;;;22.50;99.90;;;;;;5046410;28;20055;-75
2022/07/31 10:01:22;;;;;;;4.65;2.15;;;22.60;99.90;;;;;;5049208;28;20083;-74
2022/07/31 10:03:50;;;;;;;5.20;2.30;;;22.70;99.80;;;;;;5031250;28;20504;-75
2022/07/31 10:06:17;;;;;;;4.55;2.20;;;22.70;99.20;;;;;;5036224;28;20033;-75
2022/07/31 10:08:45;;;;;;;3.72;2.47;;;22.80;99.30;;;;;;5028435;28;20028;-74
2022/07/31 10:11:13;;;;;;;6.25;2.55;;;22.90;98.90;;;;;;5031122;28;20021;-74
2022/07/31 10:13:45;;;;;;;3.20;1.95;;;23.10;99.10;;;;;;5029223;28;20687;-74
2022/07/31 10:16:11;;;;;;;4.28;2.45;;;23.20;99.20;;;;;;5026513;28;20459;-73
2022/07/31 10:18:40;;;;;;;4.20;2.67;;;23.30;98.20;;;;;;5028908;28;20068;-73
2022/07/31 10:21:10;;;;;;;6.03;2.42;;;23.40;98.20;;;;;;5022732;28;20037;-80
2022/07/31 10:23:41;;;;;;;4.53;2.25;;;23.50;98.20;;;;;;5027523;28;20047;-75
2022/07/31 10:26:07;;;;;;;3.78;1.90;;;23.40;96.00;;;;;;5034478;28;20378;-75
2022/07/31 10:28:36;;;;;;;2.45;1.80;;;23.50;97.20;;;;;;5033866;28;20029;-74
2022/07/31 10:31:03;;;;;;;4.63;1.98;;;23.60;97.40;;;;;;5015736;28;20029;-75
2022/07/31 10:33:36;;;;;;;4.57;2.38;;;23.70;96.70;;;;;;5006086;28;20025;-74
2022/07/31 10:36:12;;;;;;;2.70;1.63;;;23.70;94.50;;;;;;5036548;28;20036;-74
2022/07/31 10:38:46;;;;;;;6.00;1.70;;;23.70;95.30;;;;;;5037398;28;20029;-74
2022/07/31 10:41:39;;;;;;;4.18;2.20;;;23.90;95.60;;;;;;5014029;28;20090;-73
2022/07/31 10:44:33;;;;;;;3.85;2.03;;;23.90;94.10;;;;;;5026632;28;20112;-74
2022/07/31 10:46:59;;;;;;;9.63;2.28;;;24.00;94.40;;;;;;5017216;28;20086;-74
2022/07/31 10:49:45;;;;;;;4.40;1.90;;;24.00;93.70;;;;;;5043718;28;20440;-73
2022/07/31 10:52:11;;;;;;;3.28;1.90;;;24.20;93.50;;;;;;5047996;28;20040;-71
2022/07/31 10:54:45;;;;;;;3.42;1.90;;;24.20;93.40;;;;;;5047847;28;20028;-71
2022/07/31 10:57:22;;;;;;;3.65;1.83;;;24.40;93.00;;;;;;5043518;28;20075;-72
2022/07/31 10:59:48;;;;;;;11.23;2.53;;;24.60;92.70;;;;;;5030409;28;20549;-72
2022/07/31 11:02:25;;;;;;;3.55;1.63;;;24.60;93.00;;;;;;5045456;28;20146;-73
2022/07/31 11:04:51;;;;;;;4.22;2.00;;;24.70;93.20;;;;;;5047316;28;20142;-76
2022/07/31 11:07:20;;;;;;;5.93;2.00;;;24.80;92.00;;;;;;5048210;28;20066;-76
2022/07/31 11:09:45;;;;;;;3.97;2.30;;;24.90;91.60;;;;;;5044772;28;20021;-77
2022/07/31 11:12:18;;;;;;;6.63;2.40;;;24.90;90.80;;;;;;5045417;28;20040;-77
2022/07/31 11:14:44;;;;;;;4.43;2.60;;;25.00;91.60;;;;;;5048770;28;20036;-77
2022/07/31 11:17:10;;;;;;;3.78;2.05;;;24.90;90.90;;;;;;5050312;28;20024;-77
2022/07/31 11:19:42;;;;;;;4.43;1.95;;;24.90;91.20;;;;;;5033898;28;20599;-76
2022/07/31 11:22:13;;;;;;;4.75;2.00;;;25.00;91.30;;;;;;5049168;28;20112;-76
2022/07/31 11:24:39;;;;;;;3.95;2.10;;;24.90;89.90;;;;;;5049992;28;20029;-78
2022/07/31 11:27:05;;;;;;;3.90;2.00;;;24.80;90.10;;;;;;5051971;28;20040;-77
2022/07/31 11:29:39;;;;;;;3.85;2.03;;;24.80;90.60;;;;;;5048661;28;20028;-76
2022/07/31 11:32:04;;;;;;;5.10;2.08;;;24.90;90.90;;;;;;5047996;28;20091;-77
2022/07/31 11:34:52;;;;;;;3.35;2.10;;;24.90;91.40;;;;;;5015087;28;20032;-77
2022/07/31 11:37:23;;;;;;;3.65;2.03;;;24.90;91.40;;;;;;5032676;28;20146;-77
2022/07/31 11:39:50;;;;;;;2.70;1.80;;;25.10;91.80;;;;;;5032388;28;20209;-77
2022/07/31 11:42:17;;;;;;;4.80;2.13;;;25.20;91.70;;;;;;5049649;28;20064;-77
2022/07/31 11:44:42;;;;;;;3.80;1.95;;;25.60;91.00;;;;;;5014362;28;20050;-76
2022/07/31 11:47:09;;;;;;;3.35;2.10;;;25.90;90.80;;;;;;5033559;28;20124;-76
2022/07/31 11:49:36;;;;;;;3.17;1.90;;;26.20;89.50;;;;;;5051249;28;20104;-77
2022/07/31 11:52:03;;;;;;;4.47;2.17;;;26.60;89.50;;;;;;5051017;28;20449;-76
2022/07/31 11:54:29;;;;;;;3.47;2.10;;;26.80;85.80;;;;;;5033590;28;20029;-76
2022/07/31 11:56:55;;;;;;;5.88;2.58;;;26.70;86.60;;;;;;5052190;28;20052;-76
2022/07/31 11:59:47;;;;;;;4.35;1.73;;;26.50;87.30;;;;;;5050288;28;20024;-77
2022/07/31 12:02:13;;;;;;;3.35;2.00;;;26.40;85.40;;;;;;5029523;28;20119;-76
2022/07/31 12:04:40;;;;;;;3.97;2.20;;;26.20;86.30;;;;;;5032811;28;20107;-76
2022/07/31 12:07:08;;;;;;;3.67;1.85;;;26.20;84.40;;;;;;5050680;28;20488;-76
2022/07/31 12:09:35;;;;;;;3.28;1.70;;;26.20;85.90;;;;;;5029478;28;20039;-77
2022/07/31 12:12:04;;;;;;;2.90;1.90;;;26.20;85.50;;;;;;5048026;28;20025;-77
2022/07/31 12:14:36;;;;;;;3.80;2.03;;;26.20;86.00;;;;;;5048863;28;20017;-76
2022/07/31 12:17:03;;;;;;;4.03;1.75;;;26.20;85.60;;;;;;5047791;28;20104;-77
2022/07/31 12:19:37;;;;;;;3.50;2.25;;;26.10;84.30;;;;;;5049970;28;20039;-76
2022/07/31 12:22:19;;;;;;;4.65;2.13;;;26.10;83.90;;;;;;5032325;28;20065;-77
2022/07/31 12:24:46;;;;;;;6.10;2.10;;;26.00;82.90;;;;;;5033434;28;20373;-75
2022/07/31 12:27:17;;;;;;;2.97;2.17;;;26.10;85.30;;;;;;5028524;28;20060;-76
2022/07/31 12:29:43;;;;;;;4.05;1.90;;;26.40;84.70;;;;;;5013680;28;20116;-76
2022/07/31 12:32:09;;;;;;;2.92;1.85;;;26.70;83.30;;;;;;5030755;28;20032;-76
2022/07/31 12:34:38;;;;;;;3.67;1.77;;;27.20;81.70;;;;;;5031977;28;20185;-77
2022/07/31 12:37:07;;;;;;;6.60;1.92;;;27.50;82.40;;;;;;5049804;28;20067;-75
2022/07/31 12:39:49;;;;;;;3.97;1.70;;;27.90;80.30;;;;;;5016542;28;20017;-76
2022/07/31 12:42:29;;;;;;;2.53;1.80;;;28.20;77.10;;;;;;5049486;28;20438;-77
2022/07/31 12:44:58;;;;;;;2.85;2.25;;;28.00;78.10;;;;;;5050112;28;20028;-75